Station Historical Data
Daily Summary for January 2, 2017 Units:  Metric    English   Both
« Previous Day
Next Day »
Daily Weekly Monthly Yearly Custom
  High: Low: Average:
Temperature: 5.3 °C -3.5 °C 1.8 °C
Dew Point: 2.8 °C -6.4 °C -1.4 °C
Humidity: 90% 69% 80%
Wind Speed: 8km/h 0km/h 2.1km/h
Wind Gust: 16.1km/h - -
Wind- - East
Pressure: 1028 hPa 1017.5 hPa -
Precipitation: 0 mm    
Historical Graphs
 
 
Tabular Data for January 2, 2017
Time Temperature Dew Point Pressure Wind Wind Speed Wind Gust Humidity Rainfall Rate (Hourly)
00:04 -3.5 °C -6.1 °C 1027.3 hPa ESE 1.6 km/h 4.8 km/h 82% 0 mm
00:09 -3.4 °C -6 °C 1027.3 hPa ESE 1.6 km/h 4.8 km/h 82% 0 mm
00:14 -3.3 °C -6.1 °C 1027.3 hPa ESE 3.2 km/h 4.8 km/h 81% 0 mm
00:19 -3.3 °C -6.1 °C 1027.3 hPa Calm   4.8 km/h 81% 0 mm
00:24 -3.3 °C -6.1 °C 1027 hPa ESE 1.6 km/h 4.8 km/h 81% 0 mm
00:29 -3.2 °C -6.1 °C 1027 hPa ESE 1.6 km/h 4.8 km/h 80% 0 mm
00:34 -3.1 °C -6 °C 1027 hPa ESE 1.6 km/h 4.8 km/h 80% 0 mm
00:39 -2.9 °C -5.9 °C 1027 hPa ESE 3.2 km/h 3.2 km/h 80% 0 mm
00:44 -2.8 °C -5.9 °C 1027 hPa East 4.8 km/h 4.8 km/h 79% 0 mm
00:49 -2.6 °C -5.7 °C 1027 hPa Calm   4.8 km/h 79% 0 mm
00:54 -2.4 °C -5.6 °C 1027 hPa Calm   4.8 km/h 79% 0 mm
00:59 -2.3 °C -5.6 °C 1027 hPa SE 1.6 km/h 4.8 km/h 78% 0 mm
01:04 -2.2 °C -5.6 °C 1027 hPa Calm   3.2 km/h 78% 0 mm
01:14 -2.1 °C -5.6 °C 1026.6 hPa Calm   4.8 km/h 77% 0 mm
01:19 -2.2 °C -5.7 °C 1027 hPa Calm   4.8 km/h 77% 0 mm
01:24 -2.3 °C -5.8 °C 1027 hPa Calm   3.2 km/h 77% 0 mm
01:29 -2.3 °C -5.8 °C 1027 hPa Calm   4.8 km/h 77% 0 mm
01:34 -2.4 °C -5.9 °C 1027.3 hPa Calm   3.2 km/h 77% 0 mm
01:39 -2.6 °C -5.9 °C 1027.3 hPa Calm   3.2 km/h 78% 0 mm
01:44 -2.7 °C -6 °C 1027.3 hPa Calm   1.6 km/h 78% 0 mm
01:49 -2.9 °C -6.1 °C 1027.3 hPa Calm     79% 0 mm
01:54 -3.3 °C -6.3 °C 1027.3 hPa Calm     80% 0 mm
01:59 -3.5 °C -6.3 °C 1027.3 hPa Calm   3.2 km/h 81% 0 mm
02:04 -3.4 °C -6.2 °C 1027.3 hPa Calm   3.2 km/h 81% 0 mm
02:09 -3.4 °C -6.3 °C 1027.7 hPa Calm   1.6 km/h 80% 0 mm
02:14 -3.4 °C -6.4 °C 1027.7 hPa Calm   3.2 km/h 80% 0 mm
02:19 -3.4 °C -6.2 °C 1027.7 hPa Calm     81% 0 mm
02:24 -3.2 °C -6.1 °C 1027.7 hPa East 1.6 km/h 4.8 km/h 80% 0 mm
02:29 -2.9 °C -6.1 °C 1027.7 hPa ENE 1.6 km/h 6.4 km/h 79% 0 mm
02:34 -2.8 °C -5.9 °C 1027.3 hPa ENE 3.2 km/h 8 km/h 79% 0 mm
02:39 -2.7 °C -6 °C 1027.7 hPa ENE 1.6 km/h 6.4 km/h 78% 0 mm
02:44 -2.6 °C -6.1 °C 1027.7 hPa Calm   3.2 km/h 77% 0 mm
02:49 -2.6 °C -6.1 °C 1027.7 hPa ENE 1.6 km/h 3.2 km/h 77% 0 mm
02:54 -2.7 °C -6.2 °C 1028 hPa Calm     77% 0 mm
02:59 -2.8 °C -6.1 °C 1028 hPa Calm   3.2 km/h 78% 0 mm
03:04 -3 °C -6.3 °C 1028 hPa Calm   1.6 km/h 78% 0 mm
03:09 -3.2 °C -6.3 °C 1028 hPa Calm   1.6 km/h 79% 0 mm
03:14 -3.3 °C -6.4 °C 1028 hPa Calm   3.2 km/h 79% 0 mm
03:19 -3.3 °C -6.2 °C 1028 hPa Calm   3.2 km/h 80% 0 mm
03:24 -3.3 °C -6.2 °C 1028 hPa Calm     80% 0 mm
03:29 -3.3 °C -6.2 °C 1028 hPa Calm     80% 0 mm
03:34 -3.4 °C -6.2 °C 1028 hPa Calm     81% 0 mm
03:39 -3.4 °C -6.2 °C 1027.7 hPa Calm     81% 0 mm
03:44 -3.4 °C -6.2 °C 1027.7 hPa Calm     81% 0 mm
03:49 -3.3 °C -6.1 °C 1027.7 hPa ENE 3.2 km/h 6.4 km/h 81% 0 mm
03:54 -3.2 °C -5.9 °C 1027.3 hPa ENE 1.6 km/h 4.8 km/h 81% 0 mm
03:59 -3 °C -5.9 °C 1027.7 hPa East 4.8 km/h 4.8 km/h 80% 0 mm
04:04 -2.7 °C -5.8 °C 1027.7 hPa Calm   8 km/h 79% 0 mm
04:09 -2.6 °C -5.7 °C 1027.7 hPa ENE 1.6 km/h 8 km/h 79% 0 mm
04:14 -2.5 °C -5.7 °C 1027.7 hPa ENE 1.6 km/h 4.8 km/h 79% 0 mm
04:19 -2.6 °C -5.7 °C 1027.7 hPa ENE 1.6 km/h 4.8 km/h 79% 0 mm
04:24 -2.7 °C -5.8 °C 1027.7 hPa Calm   1.6 km/h 79% 0 mm
04:29 -2.7 °C -5.8 °C 1027.3 hPa Calm   3.2 km/h 79% 0 mm
04:35 -2.6 °C -5.7 °C 1027.3 hPa East 1.6 km/h 8 km/h 79% 0 mm
04:44 -2.6 °C -5.7 °C 1027.3 hPa Calm   3.2 km/h 79% 0 mm
04:49 -2.7 °C -5.8 °C 1027.3 hPa ENE 1.6 km/h 4.8 km/h 79% 0 mm
04:54 -2.7 °C -5.8 °C 1027 hPa East 4.8 km/h 4.8 km/h 79% 0 mm
04:59 -2.7 °C -5.8 °C 1027 hPa East 3.2 km/h 8 km/h 79% 0 mm
05:04 -2.7 °C -5.8 °C 1027.3 hPa ESE 1.6 km/h 4.8 km/h 79% 0 mm
05:09 -2.7 °C -6 °C 1027 hPa East 1.6 km/h 4.8 km/h 78% 0 mm
05:14 -2.7 °C -6 °C 1027 hPa East 1.6 km/h 4.8 km/h 78% 0 mm
05:19 -2.7 °C -6 °C 1027 hPa East 1.6 km/h 4.8 km/h 78% 0 mm
05:24 -2.7 °C -6 °C 1027 hPa East 1.6 km/h 4.8 km/h 78% 0 mm
05:29 -2.6 °C -5.9 °C 1027 hPa ENE 3.2 km/h 8 km/h 78% 0 mm
05:34 -2.6 °C -5.9 °C 1027 hPa ENE 3.2 km/h 8 km/h 78% 0 mm
05:39 -2.4 °C -5.8 °C 1027 hPa East 3.2 km/h 8 km/h 78% 0 mm
05:44 -2.4 °C -5.9 °C 1027 hPa East 4.8 km/h 8 km/h 77% 0 mm
05:49 -2.4 °C -5.9 °C 1027 hPa East 1.6 km/h 8 km/h 77% 0 mm
05:54 -2.4 °C -5.9 °C 1027 hPa East 3.2 km/h 8 km/h 77% 0 mm
05:59 -2.6 °C -5.9 °C 1027 hPa East 4.8 km/h 4.8 km/h 78% 0 mm
06:04 -2.6 °C -5.9 °C 1026.6 hPa ENE 3.2 km/h 4.8 km/h 78% 0 mm
06:09 -2.4 °C -5.7 °C 1026.6 hPa ENE 3.2 km/h 8 km/h 78% 0 mm
06:14 -2.1 °C -5.6 °C 1026.6 hPa East 1.6 km/h 9.7 km/h 77% 0 mm
06:19 -1.8 °C -5.5 °C 1026.6 hPa ENE 3.2 km/h 9.7 km/h 76% 0 mm
06:24 -1.7 °C -5.3 °C 1026.6 hPa ENE 3.2 km/h 9.7 km/h 76% 0 mm
06:29 -1.7 °C -5.4 °C 1026.6 hPa ENE 1.6 km/h 8 km/h 76% 0 mm
06:34 -1.7 °C -5.3 °C 1026.3 hPa ENE 1.6 km/h 4.8 km/h 76% 0 mm
06:39 -1.5 °C -5.2 °C 1026.6 hPa Calm   3.2 km/h 76% 0 mm
06:44 -1.3 °C -5.2 °C 1026.6 hPa Calm     75% 0 mm
06:49 -1.3 °C -5.2 °C 1026.3 hPa ENE 3.2 km/h 3.2 km/h 75% 0 mm
06:54 -1.3 °C -5.2 °C 1026.3 hPa ENE 1.6 km/h 4.8 km/h 75% 0 mm
06:59 -1.3 °C -5.2 °C 1026.3 hPa ENE 1.6 km/h 4.8 km/h 75% 0 mm
07:04 -1.4 °C -5.1 °C 1026.6 hPa ENE 1.6 km/h 4.8 km/h 76% 0 mm
07:09 -1.4 °C -5.1 °C 1026.3 hPa Calm     76% 0 mm
07:14 -1.3 °C -5.2 °C 1026.3 hPa NE 1.6 km/h 6.4 km/h 75% 0 mm
07:19 -1.1 °C -4.9 °C 1026.3 hPa NE 3.2 km/h 6.4 km/h 75% 0 mm
07:24 -1.1 °C -5.1 °C 1026.3 hPa NE 1.6 km/h 8 km/h 74% 0 mm
07:29 -0.9 °C -4.9 °C 1026.6 hPa NE 3.2 km/h 8 km/h 74% 0 mm
07:34 -0.8 °C -4.9 °C 1026.6 hPa NE 3.2 km/h 6.4 km/h 74% 0 mm
07:39 -0.9 °C -4.9 °C 1026.6 hPa Calm   4.8 km/h 74% 0 mm
07:44 -1.2 °C -5.1 °C 1026.6 hPa Calm     75% 0 mm
07:49 -1.2 °C -4.9 °C 1026.6 hPa ENE 3.2 km/h 3.2 km/h 76% 0 mm
07:54 -1.1 °C -5 °C 1026.6 hPa Calm   4.8 km/h 75% 0 mm
07:59 -1.1 °C -4.9 °C 1026.6 hPa Calm   4.8 km/h 75% 0 mm
08:04 -1 °C -4.7 °C 1026.6 hPa ENE 1.6 km/h 3.2 km/h 76% 0 mm
08:09 -1 °C -4.7 °C 1027 hPa ENE 1.6 km/h 6.4 km/h 76% 0 mm
08:14 -0.8 °C -4.7 °C 1027 hPa NE 1.6 km/h 6.4 km/h 75% 0 mm
08:19 -0.7 °C -4.6 °C 1027 hPa NE 3.2 km/h 4.8 km/h 75% 0 mm
08:24 -0.6 °C -4.4 °C 1027 hPa NE 3.2 km/h 4.8 km/h 75% 0 mm
08:29 -0.5 °C -4.6 °C 1027 hPa NE 3.2 km/h 8 km/h 74% 0 mm
08:34 -0.4 °C -4.4 °C 1027 hPa NE 3.2 km/h 8 km/h 74% 0 mm
08:39 -0.2 °C -4.3 °C 1027 hPa NE 3.2 km/h 8 km/h 74% 0 mm
08:44 -0.1 °C -4.2 °C 1027 hPa ENE 8 km/h 11.3 km/h 74% 0 mm
08:49 0.1 °C -4.2 °C 1027 hPa NE 3.2 km/h 9.7 km/h 73% 0 mm
08:54 0.2 °C -4.1 °C 1027 hPa ENE 4.8 km/h 8 km/h 73% 0 mm
08:59 0.2 °C -4.1 °C 1027 hPa East 3.2 km/h 8 km/h 73% 0 mm
09:05 0.3 °C -4 °C 1027 hPa ENE 3.2 km/h 9.7 km/h 73% 0 mm
09:14 0.4 °C -3.8 °C 1026.6 hPa ENE 3.2 km/h 11.3 km/h 73% 0 mm
09:19 0.6 °C -3.7 °C 1027 hPa ENE 4.8 km/h 8 km/h 73% 0 mm
09:24 0.7 °C -3.6 °C 1027 hPa ENE 1.6 km/h 6.4 km/h 73% 0 mm
09:29 0.8 °C -3.5 °C 1027 hPa East 1.6 km/h 8 km/h 73% 0 mm
09:34 0.9 °C -3.4 °C 1026.6 hPa East 3.2 km/h 8 km/h 73% 0 mm
09:39 0.9 °C -3.6 °C 1027 hPa East 3.2 km/h 8 km/h 72% 0 mm
09:44 1 °C -3.5 °C 1027 hPa East 3.2 km/h 8 km/h 72% 0 mm
09:49 1.1 °C -3.4 °C 1026.6 hPa NE 4.8 km/h 8 km/h 72% 0 mm
09:54 1.2 °C -3.3 °C 1027 hPa Calm   4.8 km/h 72% 0 mm
09:59 1.2 °C -3.3 °C 1027 hPa ENE 3.2 km/h 6.4 km/h 72% 0 mm
10:04 1.3 °C -3.2 °C 1027 hPa ENE 1.6 km/h 8 km/h 72% 0 mm
10:09 1.4 °C -3.1 °C 1027 hPa ENE 3.2 km/h 8 km/h 72% 0 mm
10:14 1.6 °C -2.9 °C 1027 hPa ENE 3.2 km/h 8 km/h 72% 0 mm
10:19 1.7 °C -2.8 °C 1026.6 hPa ENE 3.2 km/h 8 km/h 72% 0 mm
10:24 1.8 °C -2.7 °C 1026.6 hPa East 4.8 km/h 8 km/h 72% 0 mm
10:29 2.1 °C -2.7 °C 1026.6 hPa NE 3.2 km/h 8 km/h 71% 0 mm
10:34 2.2 °C -2.6 °C 1026.6 hPa East 1.6 km/h 6.4 km/h 71% 0 mm
10:39 2.3 °C -2.4 °C 1026.6 hPa ENE 3.2 km/h 8 km/h 71% 0 mm
10:44 2.5 °C -2.1 °C 1026.6 hPa ENE 3.2 km/h 8 km/h 72% 0 mm
10:49 2.7 °C -2.3 °C 1026.6 hPa ENE 3.2 km/h 9.7 km/h 70% 0 mm
10:54 2.7 °C -2.2 °C 1026.6 hPa ENE 1.6 km/h 3.2 km/h 70% 0 mm
10:59 2.8 °C -2.1 °C 1026.3 hPa ENE 1.6 km/h 8 km/h 70% 0 mm
11:04 3 °C -1.7 °C 1026.3 hPa ENE 1.6 km/h 4.8 km/h 71% 0 mm
11:09 3.1 °C -1.7 °C 1026.3 hPa East 3.2 km/h 6.4 km/h 71% 0 mm
11:14 3.3 °C -1.7 °C 1026 hPa ENE 3.2 km/h 6.4 km/h 70% 0 mm
11:19 3.4 °C -1.6 °C 1026 hPa ENE 3.2 km/h 4.8 km/h 70% 0 mm
11:24 3.6 °C -1.4 °C 1026 hPa ENE 3.2 km/h 8 km/h 70% 0 mm
11:29 3.7 °C -1.3 °C 1025.6 hPa Calm   6.4 km/h 70% 0 mm
11:34 3.8 °C -1.4 °C 1025.6 hPa ENE 3.2 km/h 6.4 km/h 69% 0 mm
11:39 3.8 °C -1.2 °C 1025.6 hPa East 1.6 km/h 4.8 km/h 70% 0 mm
11:44 3.8 °C -1.2 °C 1025.6 hPa East 3.2 km/h 4.8 km/h 70% 0 mm
11:49 3.8 °C -1.2 °C 1025.3 hPa East 3.2 km/h 9.7 km/h 70% 0 mm
11:54 3.8 °C -1.2 °C 1025.6 hPa East 3.2 km/h 9.7 km/h 70% 0 mm
11:59 3.9 °C -0.9 °C 1025.3 hPa ENE 3.2 km/h 4.8 km/h 71% 0 mm
12:04 3.9 °C -0.9 °C 1025.3 hPa ENE 3.2 km/h 4.8 km/h 71% 0 mm
12:14 4 °C -0.8 °C 1024.9 hPa East 3.2 km/h 6.4 km/h 71% 0 mm
12:19 4.1 °C -0.7 °C 1024.9 hPa ENE 1.6 km/h 6.4 km/h 71% 0 mm
12:24 4.1 °C -0.7 °C 1024.6 hPa ENE 1.6 km/h 4.8 km/h 71% 0 mm
12:29 4.2 °C -0.6 °C 1024.6 hPa NE 1.6 km/h 4.8 km/h 71% 0 mm
12:34 4.1 °C -0.5 °C 1024.6 hPa NE 3.2 km/h 8 km/h 72% 0 mm
12:39 4.2 °C -0.4 °C 1024.6 hPa ENE 1.6 km/h 4.8 km/h 72% 0 mm
12:44 4.2 °C -0.4 °C 1024.6 hPa NE 3.2 km/h 6.4 km/h 72% 0 mm
12:49 4.3 °C -0.3 °C 1024.3 hPa NE 3.2 km/h 6.4 km/h 72% 0 mm
12:54 4.3 °C -0.3 °C 1024.3 hPa East 3.2 km/h 8 km/h 72% 0 mm
12:59 4.3 °C -0.1 °C 1024.6 hPa NE 3.2 km/h 8 km/h 73% 0 mm
13:04 4.4 °C -0.2 °C 1024.3 hPa NE 3.2 km/h 4.8 km/h 72% 0 mm
13:09 4.5 °C -0.1 °C 1024.3 hPa NE 1.6 km/h 4.8 km/h 72% 0 mm
13:14 4.5 °C -0.1 °C 1024.3 hPa NE 3.2 km/h 6.4 km/h 72% 0 mm
13:19 4.7 °C 0.2 °C 1024.3 hPa NE 3.2 km/h 4.8 km/h 73% 0 mm
13:24 4.8 °C 0.2 °C 1024.3 hPa NE 3.2 km/h 4.8 km/h 72% 0 mm
13:29 4.8 °C 0.4 °C 1023.9 hPa NE 3.2 km/h 6.4 km/h 73% 0 mm
13:34 4.9 °C 0.3 °C 1024.3 hPa NE 3.2 km/h 6.4 km/h 72% 0 mm
13:39 4.9 °C 0.5 °C 1024.3 hPa NE 3.2 km/h 6.4 km/h 73% 0 mm
13:44 5.1 °C 0.6 °C 1023.9 hPa NE 3.2 km/h 4.8 km/h 73% 0 mm
13:49 5.1 °C 0.7 °C 1023.9 hPa Calm   4.8 km/h 73% 0 mm
13:54 5.1 °C 0.6 °C 1023.9 hPa Calm   6.4 km/h 73% 0 mm
13:59 5.1 °C 0.6 °C 1024.3 hPa Calm   3.2 km/h 73% 0 mm
14:04 5.1 °C 0.8 °C 1024.3 hPa ENE 1.6 km/h 3.2 km/h 74% 0 mm
14:09 5.1 °C 0.8 °C 1024.3 hPa Calm   1.6 km/h 74% 0 mm
14:14 5.2 °C 0.9 °C 1024.3 hPa Calm     74% 0 mm
14:19 5.1 °C 0.8 °C 1024.6 hPa Calm     74% 0 mm
14:24 5 °C 0.7 °C 1024.6 hPa Calm     74% 0 mm
14:29 4.9 °C 0.7 °C 1024.3 hPa Calm     74% 0 mm
14:34 4.8 °C 0.6 °C 1024.3 hPa Calm     74% 0 mm
14:39 4.8 °C 0.6 °C 1023.9 hPa Calm     74% 0 mm
14:44 4.8 °C 0.6 °C 1024.3 hPa ENE 3.2 km/h 4.8 km/h 74% 0 mm
14:49 4.9 °C 0.7 °C 1024.3 hPa ENE 3.2 km/h 4.8 km/h 74% 0 mm
14:59 4.7 °C 0.5 °C 1024.6 hPa ENE 1.6 km/h 4.8 km/h 74% 0 mm
15:04 4.7 °C 0.4 °C 1024.3 hPa ENE 3.2 km/h 6.4 km/h 74% 0 mm
15:09 4.7 °C 0.5 °C 1024.3 hPa ENE 4.8 km/h 6.4 km/h 74% 0 mm
15:14 4.8 °C 0.9 °C 1024.3 hPa Calm   4.8 km/h 76% 0 mm
15:19 4.9 °C 1.4 °C 1024.3 hPa ENE 1.6 km/h 4.8 km/h 78% 0 mm
15:24 5 °C 1.7 °C 1024.6 hPa ENE 1.6 km/h 4.8 km/h 79% 0 mm
15:29 5.1 °C 1.9 °C 1024.6 hPa East 3.2 km/h 3.2 km/h 80% 0 mm
15:34 5.2 °C 2.2 °C 1024.6 hPa East 1.6 km/h 6.4 km/h 81% 0 mm
15:39 5.3 °C 2.3 °C 1024.6 hPa ESE 1.6 km/h 6.4 km/h 81% 0 mm
15:44 5.3 °C 2.4 °C 1024.6 hPa ENE 4.8 km/h 11.3 km/h 82% 0 mm
15:49 5.3 °C 2.4 °C 1024.6 hPa ESE 3.2 km/h 11.3 km/h 82% 0 mm
15:54 5.2 °C 2.5 °C 1024.3 hPa ESE 3.2 km/h 8 km/h 83% 0 mm
15:59 5.2 °C 2.7 °C 1024.3 hPa ESE 4.8 km/h 9.7 km/h 84% 0 mm
16:04 5.1 °C 2.7 °C 1024.3 hPa ESE 3.2 km/h 6.4 km/h 85% 0 mm
16:09 4.9 °C 2.8 °C 1023.9 hPa ESE 1.6 km/h 6.4 km/h 86% 0 mm
16:14 4.9 °C 2.7 °C 1023.9 hPa Calm   8 km/h 86% 0 mm
16:19 4.8 °C 2.8 °C 1023.9 hPa ESE 3.2 km/h 8 km/h 87% 0 mm
16:24 4.7 °C 2.7 °C 1023.6 hPa ESE 3.2 km/h 11.3 km/h 87% 0 mm
16:29 4.6 °C 2.8 °C 1023.6 hPa SE 3.2 km/h 9.7 km/h 88% 0 mm
16:34 4.6 °C 2.7 °C 1023.9 hPa SSE 4.8 km/h 11.3 km/h 88% 0 mm
16:39 4.5 °C 2.7 °C 1023.9 hPa ESE 4.8 km/h 12.9 km/h 88% 0 mm
16:44 4.4 °C 2.8 °C 1023.6 hPa SE 1.6 km/h 12.9 km/h 89% 0 mm
16:49 4.4 °C 2.7 °C 1023.2 hPa SE 1.6 km/h 11.3 km/h 89% 0 mm
16:54 4.4 °C 2.7 °C 1023.2 hPa Calm   12.9 km/h 89% 0 mm
16:59 4.3 °C 2.7 °C 1022.9 hPa Calm   8 km/h 89% 0 mm
17:04 4.3 °C 2.8 °C 1022.9 hPa ESE 4.8 km/h 12.9 km/h 90% 0 mm
17:09 4.3 °C 2.8 °C 1022.6 hPa ESE 4.8 km/h 12.9 km/h 90% 0 mm
17:14 4.2 °C 2.7 °C 1022.6 hPa East 3.2 km/h 11.3 km/h 90% 0 mm
17:19 4.2 °C 2.7 °C 1022.2 hPa ESE 4.8 km/h 11.3 km/h 90% 0 mm
17:29 4.1 °C 2.6 °C 1022.2 hPa SE 4.8 km/h 8 km/h 90% 0 mm
17:34 4.1 °C 2.6 °C 1022.6 hPa East 3.2 km/h 8 km/h 90% 0 mm
17:39 4.1 °C 2.6 °C 1022.9 hPa NE 1.6 km/h 6.4 km/h 90% 0 mm
17:44 4.2 °C 2.7 °C 1023.2 hPa NE 1.6 km/h 4.8 km/h 90% 0 mm
17:49 4.2 °C 2.7 °C 1023.2 hPa ENE 1.6 km/h 4.8 km/h 90% 0 mm
17:54 4.3 °C 2.6 °C 1023.2 hPa ENE 1.6 km/h 3.2 km/h 89% 0 mm
17:59 4.3 °C 2.6 °C 1023.2 hPa East 1.6 km/h 4.8 km/h 89% 0 mm
18:04 4.3 °C 2.7 °C 1023.2 hPa East 1.6 km/h 4.8 km/h 89% 0 mm
18:09 4.3 °C 2.7 °C 1023.2 hPa NE 6.4 km/h 8 km/h 89% 0 mm
18:14 4.3 °C 2.7 °C 1022.9 hPa East 3.2 km/h 8 km/h 89% 0 mm
18:19 4.3 °C 2.5 °C 1022.9 hPa East 1.6 km/h 8 km/h 88% 0 mm
18:24 4.3 °C 2.5 °C 1023.2 hPa East 1.6 km/h 4.8 km/h 88% 0 mm
18:29 4.3 °C 2.5 °C 1023.2 hPa East 1.6 km/h 4.8 km/h 88% 0 mm
18:34 4.3 °C 2.5 °C 1023.2 hPa East 1.6 km/h 4.8 km/h 88% 0 mm
18:39 4.4 °C 2.6 °C 1023.2 hPa East 1.6 km/h 4.8 km/h 88% 0 mm
18:44 4.4 °C 2.6 °C 1023.2 hPa Calm   4.8 km/h 88% 0 mm
18:49 4.4 °C 2.6 °C 1023.2 hPa Calm   4.8 km/h 88% 0 mm
18:54 4.4 °C 2.6 °C 1023.2 hPa Calm   4.8 km/h 88% 0 mm
18:59 4.4 °C 2.4 °C 1023.2 hPa Calm     87% 0 mm
19:04 4.4 °C 2.4 °C 1022.9 hPa ESE 3.2 km/h 4.8 km/h 87% 0 mm
19:09 4.4 °C 2.4 °C 1022.6 hPa ESE 1.6 km/h 8 km/h 87% 0 mm
19:14 4.4 °C 2.4 °C 1022.6 hPa South 1.6 km/h 8 km/h 87% 0 mm
19:19 4.4 °C 2.4 °C 1022.2 hPa SSE 1.6 km/h 8 km/h 87% 0 mm
19:24 4.4 °C 2.4 °C 1022.2 hPa SE 3.2 km/h 8 km/h 87% 0 mm
19:29 4.5 °C 2.5 °C 1021.9 hPa SE 3.2 km/h 8 km/h 87% 0 mm
19:34 4.5 °C 2.5 °C 1021.9 hPa ESE 4.8 km/h 8 km/h 87% 0 mm
19:39 4.5 °C 2.3 °C 1021.6 hPa SE 3.2 km/h 8 km/h 86% 0 mm
19:44 4.6 °C 2.4 °C 1021.6 hPa SE 1.6 km/h 8 km/h 86% 0 mm
19:49 4.6 °C 2.4 °C 1021.2 hPa SE 1.6 km/h 9.7 km/h 86% 0 mm
19:54 4.6 °C 2.4 °C 1021.2 hPa SE 3.2 km/h 11.3 km/h 86% 0 mm
19:59 4.6 °C 2.4 °C 1021.2 hPa SE 4.8 km/h 11.3 km/h 86% 0 mm
20:04 4.6 °C 2.4 °C 1021.2 hPa South 4.8 km/h 11.3 km/h 86% 0 mm
20:09 4.6 °C 2.3 °C 1020.9 hPa SE 4.8 km/h 11.3 km/h 85% 0 mm
20:14 4.6 °C 2.4 °C 1020.5 hPa SE 3.2 km/h 11.3 km/h 86% 0 mm
20:19 4.6 °C 2.4 °C 1020.2 hPa Calm   8 km/h 86% 0 mm
20:24 4.6 °C 2.4 °C 1019.9 hPa SE 3.2 km/h 9.7 km/h 86% 0 mm
20:29 4.6 °C 2.4 °C 1019.5 hPa East 4.8 km/h 11.3 km/h 86% 0 mm
20:34 4.5 °C 2.3 °C 1019.2 hPa ESE 6.4 km/h 14.5 km/h 86% 0 mm
20:39 4.5 °C 2.3 °C 1018.8 hPa SSE 6.4 km/h 14.5 km/h 86% 0 mm
20:44 4.5 °C 2.3 °C 1019.2 hPa SE 4.8 km/h 14.5 km/h 86% 0 mm
20:49 4.5 °C 2.3 °C 1019.2 hPa SE 3.2 km/h 12.9 km/h 86% 0 mm
20:54 4.6 °C 2.4 °C 1018.8 hPa SE 3.2 km/h 8 km/h 86% 0 mm
20:59 4.6 °C 2.4 °C 1019.2 hPa ESE 3.2 km/h 9.7 km/h 86% 0 mm
21:04 4.6 °C 2.4 °C 1019.2 hPa ESE 1.6 km/h 9.7 km/h 86% 0 mm
21:09 4.7 °C 2.3 °C 1019.5 hPa Calm   6.4 km/h 85% 0 mm
21:14 4.8 °C 2.4 °C 1019.5 hPa South 1.6 km/h 6.4 km/h 85% 0 mm
21:19 4.9 °C 2.6 °C 1019.5 hPa SSE 4.8 km/h 8 km/h 85% 0 mm
21:24 4.9 °C 2.6 °C 1019.5 hPa SSE 3.2 km/h 4.8 km/h 85% 0 mm
21:29 5 °C 2.7 °C 1019.9 hPa Calm   6.4 km/h 85% 0 mm
21:34 5.1 °C 2.7 °C 1019.9 hPa South 3.2 km/h 8 km/h 85% 0 mm
21:39 5.1 °C 2.8 °C 1019.9 hPa SSE 4.8 km/h 8 km/h 85% 0 mm
21:44 5.1 °C 2.8 °C 1019.9 hPa South 1.6 km/h 4.8 km/h 85% 0 mm
21:49 5.1 °C 2.7 °C 1019.5 hPa SSE 1.6 km/h 6.4 km/h 85% 0 mm
21:54 5.1 °C 2.7 °C 1019.5 hPa SE 1.6 km/h 6.4 km/h 85% 0 mm
21:59 4.9 °C 2.6 °C 1019.2 hPa SE 1.6 km/h 4.8 km/h 85% 0 mm
22:04 5 °C 2.7 °C 1019.2 hPa SE 1.6 km/h 6.4 km/h 85% 0 mm
22:09 5 °C 2.7 °C 1019.2 hPa SE 1.6 km/h 6.4 km/h 85% 0 mm
22:14 4.9 °C 2.6 °C 1018.8 hPa SE 1.6 km/h 4.8 km/h 85% 0 mm
22:19 4.9 °C 2.6 °C 1019.2 hPa SSE 1.6 km/h 6.4 km/h 85% 0 mm
22:24 4.9 °C 2.8 °C 1019.2 hPa Calm   1.6 km/h 86% 0 mm
22:29 4.9 °C 2.8 °C 1019.2 hPa Calm     86% 0 mm
22:34 4.9 °C 2.8 °C 1019.2 hPa Calm     86% 0 mm
22:39 4.9 °C 2.7 °C 1018.8 hPa Calm     86% 0 mm
22:44 4.9 °C 2.7 °C 1018.8 hPa Calm     86% 0 mm
22:49 4.9 °C 2.7 °C 1018.8 hPa Calm     86% 0 mm
22:54 4.8 °C 2.7 °C 1018.8 hPa Calm     86% 0 mm
22:59 4.8 °C 2.6 °C 1018.8 hPa Calm   3.2 km/h 86% 0 mm
23:04 4.8 °C 2.6 °C 1018.8 hPa ESE 1.6 km/h 9.7 km/h 86% 0 mm
23:09 4.8 °C 2.6 °C 1018.8 hPa ESE 1.6 km/h 9.7 km/h 86% 0 mm
23:14 4.8 °C 2.6 °C 1018.5 hPa ESE 3.2 km/h 8 km/h 86% 0 mm
23:19 4.8 °C 2.6 °C 1018.5 hPa SSE 3.2 km/h 4.8 km/h 86% 0 mm
23:24 4.8 °C 2.6 °C 1018.2 hPa ESE 3.2 km/h 6.4 km/h 86% 0 mm
23:29 4.7 °C 2.6 °C 1018.2 hPa ESE 3.2 km/h 6.4 km/h 86% 0 mm
23:34 4.7 °C 2.6 °C 1018.2 hPa SE 3.2 km/h 11.3 km/h 86% 0 mm
23:39 4.8 °C 2.6 °C 1018.2 hPa SE 3.2 km/h 12.9 km/h 86% 0 mm
23:44 4.8 °C 2.7 °C 1017.8 hPa East 4.8 km/h 8 km/h 86% 0 mm
23:49 4.8 °C 2.7 °C 1017.8 hPa ESE 3.2 km/h 9.7 km/h 86% 0 mm
23:54 4.8 °C 2.7 °C 1017.5 hPa SE 1.6 km/h 16.1 km/h 86% 0 mm
23:59 4.8 °C 2.7 °C 1017.5 hPa ESE 3.2 km/h 16.1 km/h 86% 0 mm
Buffalo, New York, USA
Compliments of Weather Underground - 2.5 mb